Buoy 59793

sailwx.info

Track history (hours):
 
Tides and Currents Weather Stations Pressure Air Temp Water Temp Dewpoint Dewpoint Depression Visibility Wind Speed Wind Dir Waves Ship Positions

He Xing 268

Last reported at 2014-Mar-20 12:09 UTC. Time now 2014-Jul-22 19:49 UTC.
Position N 21°57' E 113°13'.
Warning: this ship's position is months out of date.

Length 74 m; draft 2.5 m.

Type: Cargo ship. MMSI: 412373330.

Date/timePositionNaut miles runAvg speedWind from/ knotsBaromVisibWave heightAir tempDewpointWater temp
2014-Mar-20 12:09N 21°57' E 113°13'0 0.1
2014-Mar-20 11:27N 21°57' E 113°13'0 0.1
2014-Mar-20 10:25N 21°57' E 113°13'0 0.0
2014-Mar-20 09:33N 21°57' E 113°13'0 0.0
2014-Mar-20 08:29N 21°57' E 113°13'0 0.0
2014-Mar-20 04:22N 21°57' E 113°13'4 3.2
2014-Mar-20 03:06N 21°53' E 113°11'0 0.0
2014-Mar-20 02:31N 21°53' E 113°11'0 0.0
2014-Mar-19 12:33N 21°53' E 113°11'32 2.1
2014-Mar-18 21:12N 22°11' E 113°40'8 7.9
2014-Mar-18 20:13N 22°15' E 113°47'  
Track history (hours):
 
Tides and Currents Weather Stations Pressure Air Temp Water Temp Dewpoint Dewpoint Depression Visibility Wind Speed Wind Dir Waves Ship Positions

He Xing 268

Last reported at 2014-Mar-20 12:09 UTC. Time now 2014-Jul-22 19:49 UTC.
Position N 21°57' E 113°13'.
Warning: this ship's position is months out of date.

Length 74 m; draft 2.5 m.

Type: Cargo ship. MMSI: 412373330.

Date/timePositionNaut miles runAvg speedWind from/ knotsBaromVisibWave heightAir tempDewpointWater temp
2014-Mar-20 12:09N 21°57' E 113°13'0 0.1
2014-Mar-20 11:27N 21°57' E 113°13'0 0.1
2014-Mar-20 10:25N 21°57' E 113°13'0 0.0
2014-Mar-20 09:33N 21°57' E 113°13'0 0.0
2014-Mar-20 08:29N 21°57' E 113°13'0 0.0
2014-Mar-20 04:22N 21°57' E 113°13'4 3.2
2014-Mar-20 03:06N 21°53' E 113°11'0 0.0
2014-Mar-20 02:31N 21°53' E 113°11'0 0.0
2014-Mar-19 12:33N 21°53' E 113°11'32 2.1
2014-Mar-18 21:12N 22°11' E 113°40'8 7.9
2014-Mar-18 20:13N 22°15' E 113°47'  

Dump ship's entire track history